sensor_id;sensor_type;location;lat;lon;timestamp;temperature;humidity
12839;DHT22;6486;51.034;5.262;2022-12-29T00:02:01;12.30;90.70
12839;DHT22;6486;51.034;5.262;2022-12-29T00:04:26;12.30;90.70
12839;DHT22;6486;51.034;5.262;2022-12-29T00:06:52;12.30;90.60
12839;DHT22;6486;51.034;5.262;2022-12-29T00:09:19;12.30;90.60
12839;DHT22;6486;51.034;5.262;2022-12-29T00:11:45;12.40;90.60
12839;DHT22;6486;51.034;5.262;2022-12-29T00:14:11;12.30;90.50
12839;DHT22;6486;51.034;5.262;2022-12-29T00:16:56;12.40;90.50
12839;DHT22;6486;51.034;5.262;2022-12-29T00:19:22;12.40;90.40
12839;DHT22;6486;51.034;5.262;2022-12-29T00:22:08;12.40;90.40
12839;DHT22;6486;51.034;5.262;2022-12-29T00:24:52;12.40;90.30
12839;DHT22;6486;51.034;5.262;2022-12-29T00:27:28;12.40;90.20
12839;DHT22;6486;51.034;5.262;2022-12-29T00:30:19;12.40;90.10
12839;DHT22;6486;51.034;5.262;2022-12-29T00:33:10;12.40;90.00
12839;DHT22;6486;51.034;5.262;2022-12-29T00:36:05;12.50;89.70
12839;DHT22;6486;51.034;5.262;2022-12-29T00:38:35;12.50;89.60
12839;DHT22;6486;51.034;5.262;2022-12-29T00:41:20;12.50;88.90
12839;DHT22;6486;51.034;5.262;2022-12-29T00:44:04;12.50;88.60
12839;DHT22;6486;51.034;5.262;2022-12-29T00:46:31;12.60;88.20
12839;DHT22;6486;51.034;5.262;2022-12-29T00:48:58;12.60;88.00
12839;DHT22;6486;51.034;5.262;2022-12-29T00:51:43;12.60;87.20
12839;DHT22;6486;51.034;5.262;2022-12-29T00:54:08;12.60;87.00
12839;DHT22;6486;51.034;5.262;2022-12-29T00:56:34;12.60;86.30
12839;DHT22;6486;51.034;5.262;2022-12-29T00:59:04;12.70;86.30
12839;DHT22;6486;51.034;5.262;2022-12-29T01:01:30;12.70;86.40
12839;DHT22;6486;51.034;5.262;2022-12-29T01:03:56;12.70;86.20
12839;DHT22;6486;51.034;5.262;2022-12-29T01:06:22;12.70;86.10
12839;DHT22;6486;51.034;5.262;2022-12-29T01:08:48;12.70;86.10
12839;DHT22;6486;51.034;5.262;2022-12-29T01:11:40;12.70;86.00
12839;DHT22;6486;51.034;5.262;2022-12-29T01:14:07;12.70;85.50
12839;DHT22;6486;51.034;5.262;2022-12-29T01:16:32;12.70;85.60
12839;DHT22;6486;51.034;5.262;2022-12-29T01:18:58;12.70;85.40
12839;DHT22;6486;51.034;5.262;2022-12-29T01:21:25;12.70;85.00
12839;DHT22;6486;51.034;5.262;2022-12-29T01:23:50;12.70;84.80
12839;DHT22;6486;51.034;5.262;2022-12-29T01:26:17;12.70;84.40
12839;DHT22;6486;51.034;5.262;2022-12-29T01:28:43;12.80;84.20
12839;DHT22;6486;51.034;5.262;2022-12-29T01:31:11;12.70;84.30
12839;DHT22;6486;51.034;5.262;2022-12-29T01:33:37;12.70;83.70
12839;DHT22;6486;51.034;5.262;2022-12-29T01:36:04;12.80;84.00
12839;DHT22;6486;51.034;5.262;2022-12-29T01:38:31;12.80;83.60
12839;DHT22;6486;51.034;5.262;2022-12-29T01:40:56;12.80;83.60
12839;DHT22;6486;51.034;5.262;2022-12-29T01:43:51;12.80;83.50
12839;DHT22;6486;51.034;5.262;2022-12-29T01:49:16;12.80;83.30
12839;DHT22;6486;51.034;5.262;2022-12-29T01:51:51;12.80;83.10
12839;DHT22;6486;51.034;5.262;2022-12-29T01:54:22;12.80;83.20
12839;DHT22;6486;51.034;5.262;2022-12-29T01:56:54;12.80;83.20
12839;DHT22;6486;51.034;5.262;2022-12-29T01:59:24;12.70;83.10
12839;DHT22;6486;51.034;5.262;2022-12-29T02:01:50;12.70;83.60
12839;DHT22;6486;51.034;5.262;2022-12-29T02:04:16;12.70;83.80
12839;DHT22;6486;51.034;5.262;2022-12-29T02:06:57;12.60;84.00
12839;DHT22;6486;51.034;5.262;2022-12-29T02:09:24;12.60;84.10
12839;DHT22;6486;51.034;5.262;2022-12-29T02:11:51;12.60;84.20
12839;DHT22;6486;51.034;5.262;2022-12-29T02:14:17;12.50;84.60
12839;DHT22;6486;51.034;5.262;2022-12-29T02:33:21;12.20;86.60
12839;DHT22;6486;51.034;5.262;2022-12-29T02:41:34;12.10;87.20
12839;DHT22;6486;51.034;5.262;2022-12-29T02:46:58;12.10;87.60
12839;DHT22;6486;51.034;5.262;2022-12-29T02:52:10;12.10;87.80
12839;DHT22;6486;51.034;5.262;2022-12-29T02:54:37;12.10;88.00
12839;DHT22;6486;51.034;5.262;2022-12-29T02:57:12;12.10;88.10
12839;DHT22;6486;51.034;5.262;2022-12-29T02:59:37;12.10;88.20
12839;DHT22;6486;51.034;5.262;2022-12-29T03:02:28;12.20;88.40
12839;DHT22;6486;51.034;5.262;2022-12-29T03:13:44;12.20;88.70
12839;DHT22;6486;51.034;5.262;2022-12-29T03:16:52;12.20;88.90
12839;DHT22;6486;51.034;5.262;2022-12-29T03:19:23;12.10;89.20
12839;DHT22;6486;51.034;5.262;2022-12-29T03:21:55;12.10;89.30
12839;DHT22;6486;51.034;5.262;2022-12-29T03:24:43;12.10;89.60
12839;DHT22;6486;51.034;5.262;2022-12-29T03:27:16;12.00;89.70
12839;DHT22;6486;51.034;5.262;2022-12-29T03:29:47;12.00;89.80
12839;DHT22;6486;51.034;5.262;2022-12-29T03:32:20;12.00;90.00
12839;DHT22;6486;51.034;5.262;2022-12-29T03:34:48;12.00;90.20
12839;DHT22;6486;51.034;5.262;2022-12-29T03:37:21;11.90;90.20
12839;DHT22;6486;51.034;5.262;2022-12-29T03:39:47;11.90;90.30
12839;DHT22;6486;51.034;5.262;2022-12-29T03:42:16;11.90;90.30
12839;DHT22;6486;51.034;5.262;2022-12-29T03:44:44;11.90;90.40
12839;DHT22;6486;51.034;5.262;2022-12-29T03:47:11;11.90;90.40
12839;DHT22;6486;51.034;5.262;2022-12-29T03:49:37;11.90;90.40
12839;DHT22;6486;51.034;5.262;2022-12-29T03:52:03;11.90;90.40
12839;DHT22;6486;51.034;5.262;2022-12-29T03:54:30;11.90;90.40
12839;DHT22;6486;51.034;5.262;2022-12-29T03:56:55;11.90;90.70
12839;DHT22;6486;51.034;5.262;2022-12-29T03:59:21;11.90;90.40
12839;DHT22;6486;51.034;5.262;2022-12-29T04:01:47;11.80;90.30
12839;DHT22;6486;51.034;5.262;2022-12-29T04:04:12;11.80;90.40
12839;DHT22;6486;51.034;5.262;2022-12-29T04:06:38;11.80;90.40
12839;DHT22;6486;51.034;5.262;2022-12-29T04:09:03;11.70;90.40
12839;DHT22;6486;51.034;5.262;2022-12-29T04:11:29;11.70;90.40
12839;DHT22;6486;51.034;5.262;2022-12-29T04:13:55;11.60;90.50
12839;DHT22;6486;51.034;5.262;2022-12-29T04:16:20;11.60;90.60
12839;DHT22;6486;51.034;5.262;2022-12-29T04:18:46;11.60;90.60
12839;DHT22;6486;51.034;5.262;2022-12-29T04:21:11;11.60;90.60
12839;DHT22;6486;51.034;5.262;2022-12-29T04:23:38;11.60;90.70
12839;DHT22;6486;51.034;5.262;2022-12-29T04:26:05;11.60;90.70
12839;DHT22;6486;51.034;5.262;2022-12-29T04:28:35;11.60;90.70
12839;DHT22;6486;51.034;5.262;2022-12-29T04:31:02;11.60;90.80
12839;DHT22;6486;51.034;5.262;2022-12-29T04:33:27;11.50;90.80
12839;DHT22;6486;51.034;5.262;2022-12-29T04:35:54;11.50;90.80
12839;DHT22;6486;51.034;5.262;2022-12-29T04:38:20;11.50;90.70
12839;DHT22;6486;51.034;5.262;2022-12-29T04:40:46;11.50;90.70
12839;DHT22;6486;51.034;5.262;2022-12-29T04:43:13;11.50;90.60
12839;DHT22;6486;51.034;5.262;2022-12-29T04:45:45;11.50;90.50
12839;DHT22;6486;51.034;5.262;2022-12-29T04:48:11;11.50;90.30
12839;DHT22;6486;51.034;5.262;2022-12-29T04:50:38;11.50;90.20
12839;DHT22;6486;51.034;5.262;2022-12-29T04:53:03;11.40;90.20
12839;DHT22;6486;51.034;5.262;2022-12-29T04:55:29;11.40;90.10
12839;DHT22;6486;51.034;5.262;2022-12-29T04:57:55;11.40;90.40
12839;DHT22;6486;51.034;5.262;2022-12-29T05:00:20;11.40;90.00
12839;DHT22;6486;51.034;5.262;2022-12-29T05:02:46;11.40;89.90
12839;DHT22;6486;51.034;5.262;2022-12-29T05:05:12;11.40;89.70
12839;DHT22;6486;51.034;5.262;2022-12-29T05:07:38;11.40;89.60
12839;DHT22;6486;51.034;5.262;2022-12-29T05:10:04;11.40;89.60
12839;DHT22;6486;51.034;5.262;2022-12-29T05:12:34;11.40;89.50
12839;DHT22;6486;51.034;5.262;2022-12-29T05:15:00;11.30;89.20
12839;DHT22;6486;51.034;5.262;2022-12-29T05:17:26;11.40;89.30
12839;DHT22;6486;51.034;5.262;2022-12-29T05:19:51;11.30;89.30
12839;DHT22;6486;51.034;5.262;2022-12-29T05:22:17;11.40;89.40
12839;DHT22;6486;51.034;5.262;2022-12-29T05:24:43;11.30;89.20
12839;DHT22;6486;51.034;5.262;2022-12-29T05:27:08;11.40;89.30
12839;DHT22;6486;51.034;5.262;2022-12-29T05:29:34;11.40;89.30
12839;DHT22;6486;51.034;5.262;2022-12-29T05:31:59;11.40;89.30
12839;DHT22;6486;51.034;5.262;2022-12-29T05:34:25;11.40;89.10
12839;DHT22;6486;51.034;5.262;2022-12-29T05:36:51;11.40;88.90
12839;DHT22;6486;51.034;5.262;2022-12-29T05:39:16;11.40;88.70
12839;DHT22;6486;51.034;5.262;2022-12-29T05:41:42;11.50;88.70
12839;DHT22;6486;51.034;5.262;2022-12-29T05:44:09;11.50;88.50
12839;DHT22;6486;51.034;5.262;2022-12-29T05:46:35;11.60;88.50
12839;DHT22;6486;51.034;5.262;2022-12-29T05:49:00;11.50;87.80
12839;DHT22;6486;51.034;5.262;2022-12-29T05:51:26;11.60;87.60
12839;DHT22;6486;51.034;5.262;2022-12-29T05:53:51;11.60;87.50
12839;DHT22;6486;51.034;5.262;2022-12-29T05:56:17;11.60;88.10
12839;DHT22;6486;51.034;5.262;2022-12-29T05:58:43;11.60;86.90
12839;DHT22;6486;51.034;5.262;2022-12-29T06:01:08;11.60;86.80
12839;DHT22;6486;51.034;5.262;2022-12-29T06:03:34;11.70;86.50
12839;DHT22;6486;51.034;5.262;2022-12-29T06:05:59;11.60;86.20
12839;DHT22;6486;51.034;5.262;2022-12-29T06:08:25;11.70;86.00
12839;DHT22;6486;51.034;5.262;2022-12-29T06:10:50;11.70;86.10
12839;DHT22;6486;51.034;5.262;2022-12-29T06:13:16;11.70;85.80
12839;DHT22;6486;51.034;5.262;2022-12-29T06:15:41;11.70;85.70
12839;DHT22;6486;51.034;5.262;2022-12-29T06:18:07;11.70;85.60
12839;DHT22;6486;51.034;5.262;2022-12-29T06:20:33;11.70;85.40
12839;DHT22;6486;51.034;5.262;2022-12-29T06:22:58;11.70;84.80
12839;DHT22;6486;51.034;5.262;2022-12-29T06:25:24;11.70;84.70
12839;DHT22;6486;51.034;5.262;2022-12-29T06:27:50;11.60;83.90
12839;DHT22;6486;51.034;5.262;2022-12-29T06:30:16;11.70;84.00
12839;DHT22;6486;51.034;5.262;2022-12-29T06:32:42;11.70;83.40
12839;DHT22;6486;51.034;5.262;2022-12-29T06:35:08;11.70;82.90
12839;DHT22;6486;51.034;5.262;2022-12-29T06:37:34;11.70;83.40
12839;DHT22;6486;51.034;5.262;2022-12-29T06:39:59;11.70;82.50
12839;DHT22;6486;51.034;5.262;2022-12-29T06:42:25;11.60;81.80
12839;DHT22;6486;51.034;5.262;2022-12-29T06:44:51;11.60;81.50
12839;DHT22;6486;51.034;5.262;2022-12-29T06:47:17;11.70;81.20
12839;DHT22;6486;51.034;5.262;2022-12-29T06:49:44;11.70;80.80
12839;DHT22;6486;51.034;5.262;2022-12-29T06:52:09;11.70;80.50
12839;DHT22;6486;51.034;5.262;2022-12-29T06:54:35;11.70;80.00
12839;DHT22;6486;51.034;5.262;2022-12-29T06:57:00;11.70;79.60
12839;DHT22;6486;51.034;5.262;2022-12-29T06:59:26;11.70;79.50
12839;DHT22;6486;51.034;5.262;2022-12-29T07:01:52;11.80;79.70
12839;DHT22;6486;51.034;5.262;2022-12-29T07:04:17;11.70;78.90
12839;DHT22;6486;51.034;5.262;2022-12-29T07:06:43;11.80;79.10
12839;DHT22;6486;51.034;5.262;2022-12-29T07:09:09;11.70;78.80
12839;DHT22;6486;51.034;5.262;2022-12-29T07:11:35;11.80;78.20
12839;DHT22;6486;51.034;5.262;2022-12-29T07:14:02;11.80;78.10
12839;DHT22;6486;51.034;5.262;2022-12-29T07:16:28;11.80;78.30
12839;DHT22;6486;51.034;5.262;2022-12-29T07:18:55;11.80;78.20
12839;DHT22;6486;51.034;5.262;2022-12-29T07:21:20;11.80;78.40
12839;DHT22;6486;51.034;5.262;2022-12-29T07:23:46;11.80;78.10
12839;DHT22;6486;51.034;5.262;2022-12-29T07:26:13;11.80;78.00
12839;DHT22;6486;51.034;5.262;2022-12-29T07:28:39;11.70;78.10
12839;DHT22;6486;51.034;5.262;2022-12-29T07:31:06;11.80;78.10
12839;DHT22;6486;51.034;5.262;2022-12-29T07:33:37;11.80;78.30
12839;DHT22;6486;51.034;5.262;2022-12-29T07:36:03;11.70;78.80
12839;DHT22;6486;51.034;5.262;2022-12-29T07:38:29;11.70;78.00
12839;DHT22;6486;51.034;5.262;2022-12-29T07:40:58;11.70;77.70
12839;DHT22;6486;51.034;5.262;2022-12-29T07:43:24;11.80;77.90
12839;DHT22;6486;51.034;5.262;2022-12-29T07:45:49;11.80;78.00
12839;DHT22;6486;51.034;5.262;2022-12-29T07:48:15;11.80;77.60
12839;DHT22;6486;51.034;5.262;2022-12-29T07:50:40;11.80;77.50
12839;DHT22;6486;51.034;5.262;2022-12-29T07:53:06;11.80;77.30
12839;DHT22;6486;51.034;5.262;2022-12-29T07:55:32;11.80;77.30
12839;DHT22;6486;51.034;5.262;2022-12-29T07:57:57;11.80;77.10
12839;DHT22;6486;51.034;5.262;2022-12-29T08:00:23;11.80;77.20
12839;DHT22;6486;51.034;5.262;2022-12-29T08:02:49;11.70;77.20
12839;DHT22;6486;51.034;5.262;2022-12-29T08:05:15;11.70;77.00
12839;DHT22;6486;51.034;5.262;2022-12-29T08:07:43;11.70;77.00
12839;DHT22;6486;51.034;5.262;2022-12-29T08:10:10;11.70;77.20
12839;DHT22;6486;51.034;5.262;2022-12-29T08:12:37;11.70;78.00
12839;DHT22;6486;51.034;5.262;2022-12-29T08:15:03;11.70;77.50
12839;DHT22;6486;51.034;5.262;2022-12-29T08:17:29;11.70;77.20
12839;DHT22;6486;51.034;5.262;2022-12-29T08:19:54;11.70;77.00
12839;DHT22;6486;51.034;5.262;2022-12-29T08:22:20;11.70;77.20
12839;DHT22;6486;51.034;5.262;2022-12-29T08:24:45;11.70;77.10
12839;DHT22;6486;51.034;5.262;2022-12-29T08:27:11;11.70;77.20
12839;DHT22;6486;51.034;5.262;2022-12-29T08:29:37;11.70;77.20
12839;DHT22;6486;51.034;5.262;2022-12-29T08:32:02;11.70;76.90
12839;DHT22;6486;51.034;5.262;2022-12-29T08:34:30;11.80;77.10
12839;DHT22;6486;51.034;5.262;2022-12-29T08:36:55;11.80;77.00
12839;DHT22;6486;51.034;5.262;2022-12-29T08:39:21;11.70;76.60
12839;DHT22;6486;51.034;5.262;2022-12-29T08:41:46;11.80;76.80
12839;DHT22;6486;51.034;5.262;2022-12-29T08:44:12;11.80;76.70
12839;DHT22;6486;51.034;5.262;2022-12-29T08:46:38;11.80;75.70
12839;DHT22;6486;51.034;5.262;2022-12-29T08:49:04;11.80;76.00
12839;DHT22;6486;51.034;5.262;2022-12-29T08:51:29;11.80;75.30
12839;DHT22;6486;51.034;5.262;2022-12-29T08:53:55;11.80;75.20
12839;DHT22;6486;51.034;5.262;2022-12-29T08:56:21;11.90;75.20
12839;DHT22;6486;51.034;5.262;2022-12-29T08:58:46;11.90;75.20
12839;DHT22;6486;51.034;5.262;2022-12-29T09:01:12;11.90;74.40
12839;DHT22;6486;51.034;5.262;2022-12-29T09:03:37;11.90;74.10
12839;DHT22;6486;51.034;5.262;2022-12-29T09:06:03;11.90;74.40
12839;DHT22;6486;51.034;5.262;2022-12-29T09:08:28;11.90;73.90
12839;DHT22;6486;51.034;5.262;2022-12-29T09:10:54;11.90;74.10
12839;DHT22;6486;51.034;5.262;2022-12-29T09:13:20;11.90;74.20
12839;DHT22;6486;51.034;5.262;2022-12-29T09:15:45;11.90;74.20
12839;DHT22;6486;51.034;5.262;2022-12-29T09:18:11;11.90;74.10
12839;DHT22;6486;51.034;5.262;2022-12-29T09:20:37;11.90;73.80
12839;DHT22;6486;51.034;5.262;2022-12-29T09:23:03;11.90;73.50
12839;DHT22;6486;51.034;5.262;2022-12-29T09:25:31;11.90;73.30
12839;DHT22;6486;51.034;5.262;2022-12-29T09:27:57;11.90;73.10
12839;DHT22;6486;51.034;5.262;2022-12-29T09:30:23;11.90;73.10
12839;DHT22;6486;51.034;5.262;2022-12-29T09:32:49;11.90;73.40
12839;DHT22;6486;51.034;5.262;2022-12-29T09:35:15;11.90;73.20
12839;DHT22;6486;51.034;5.262;2022-12-29T09:37:42;11.90;72.70
12839;DHT22;6486;51.034;5.262;2022-12-29T09:40:23;11.90;72.80
12839;DHT22;6486;51.034;5.262;2022-12-29T09:43:05;11.90;73.10
12839;DHT22;6486;51.034;5.262;2022-12-29T09:48:28;11.80;72.90
12839;DHT22;6486;51.034;5.262;2022-12-29T09:50:59;11.80;72.50
12839;DHT22;6486;51.034;5.262;2022-12-29T09:53:39;11.80;72.40
12839;DHT22;6486;51.034;5.262;2022-12-29T09:56:15;11.90;72.40
12839;DHT22;6486;51.034;5.262;2022-12-29T09:58:48;11.90;72.20
12839;DHT22;6486;51.034;5.262;2022-12-29T10:03:59;12.00;72.30
12839;DHT22;6486;51.034;5.262;2022-12-29T10:09:33;12.00;71.60
12839;DHT22;6486;51.034;5.262;2022-12-29T10:12:27;12.00;71.30
12839;DHT22;6486;51.034;5.262;2022-12-29T10:25:58;12.10;70.80
12839;DHT22;6486;51.034;5.262;2022-12-29T10:30:59;12.10;70.60
12839;DHT22;6486;51.034;5.262;2022-12-29T10:33:37;12.10;70.80
12839;DHT22;6486;51.034;5.262;2022-12-29T10:36:28;12.10;71.10
12839;DHT22;6486;51.034;5.262;2022-12-29T10:41:57;12.20;70.90
12839;DHT22;6486;51.034;5.262;2022-12-29T10:44:29;12.20;70.50
12839;DHT22;6486;51.034;5.262;2022-12-29T10:46:59;12.20;70.90
12839;DHT22;6486;51.034;5.262;2022-12-29T10:49:28;12.20;70.20
12839;DHT22;6486;51.034;5.262;2022-12-29T10:51:58;12.20;70.50
12839;DHT22;6486;51.034;5.262;2022-12-29T10:54:49;12.20;70.30
12839;DHT22;6486;51.034;5.262;2022-12-29T10:57:31;12.20;70.30
12839;DHT22;6486;51.034;5.262;2022-12-29T10:59:58;12.20;69.60
12839;DHT22;6486;51.034;5.262;2022-12-29T11:02:45;12.20;69.50
12839;DHT22;6486;51.034;5.262;2022-12-29T11:05:46;12.20;70.00
12839;DHT22;6486;51.034;5.262;2022-12-29T11:08:19;12.20;70.10
12839;DHT22;6486;51.034;5.262;2022-12-29T11:10:46;12.20;70.70
12839;DHT22;6486;51.034;5.262;2022-12-29T11:13:30;12.20;70.00
12839;DHT22;6486;51.034;5.262;2022-12-29T11:15:56;12.20;69.70
12839;DHT22;6486;51.034;5.262;2022-12-29T11:20:56;12.20;69.60
12839;DHT22;6486;51.034;5.262;2022-12-29T11:23:36;12.20;70.00
12839;DHT22;6486;51.034;5.262;2022-12-29T11:26:18;12.30;70.10
12839;DHT22;6486;51.034;5.262;2022-12-29T11:28:47;12.30;69.80
12839;DHT22;6486;51.034;5.262;2022-12-29T11:31:17;12.40;70.00
12839;DHT22;6486;51.034;5.262;2022-12-29T11:33:43;12.30;69.50
12839;DHT22;6486;51.034;5.262;2022-12-29T11:36:16;12.30;69.60
12839;DHT22;6486;51.034;5.262;2022-12-29T11:38:53;12.30;69.90
12839;DHT22;6486;51.034;5.262;2022-12-29T11:41:27;12.30;69.20
12839;DHT22;6486;51.034;5.262;2022-12-29T11:43:58;12.30;69.40
12839;DHT22;6486;51.034;5.262;2022-12-29T11:46:36;12.30;69.40
12839;DHT22;6486;51.034;5.262;2022-12-29T11:49:04;12.20;69.40
12839;DHT22;6486;51.034;5.262;2022-12-29T11:51:38;12.20;69.50
12839;DHT22;6486;51.034;5.262;2022-12-29T11:54:05;12.20;69.40
12839;DHT22;6486;51.034;5.262;2022-12-29T11:56:42;12.20;69.50
12839;DHT22;6486;51.034;5.262;2022-12-29T12:01:56;12.30;69.60
12839;DHT22;6486;51.034;5.262;2022-12-29T12:04:28;12.30;69.60
12839;DHT22;6486;51.034;5.262;2022-12-29T12:09:48;12.30;69.50
12839;DHT22;6486;51.034;5.262;2022-12-29T12:12:32;12.30;69.40
12839;DHT22;6486;51.034;5.262;2022-12-29T12:14:59;12.30;69.40
12839;DHT22;6486;51.034;5.262;2022-12-29T12:17:31;12.40;69.60
12839;DHT22;6486;51.034;5.262;2022-12-29T12:23:05;12.40;69.60
12839;DHT22;6486;51.034;5.262;2022-12-29T12:31:46;12.40;69.50
12839;DHT22;6486;51.034;5.262;2022-12-29T12:34:36;12.40;69.00
12839;DHT22;6486;51.034;5.262;2022-12-29T12:40:42;12.30;69.50
12839;DHT22;6486;51.034;5.262;2022-12-29T12:43:29;12.30;69.90
12839;DHT22;6486;51.034;5.262;2022-12-29T12:46:42;12.30;69.60
12839;DHT22;6486;51.034;5.262;2022-12-29T12:52:06;12.20;69.80
12839;DHT22;6486;51.034;5.262;2022-12-29T13:00:15;12.20;69.70
12839;DHT22;6486;51.034;5.262;2022-12-29T13:03:12;12.20;69.80
12839;DHT22;6486;51.034;5.262;2022-12-29T13:10:59;12.20;70.10
12839;DHT22;6486;51.034;5.262;2022-12-29T13:16:21;12.20;70.20
12839;DHT22;6486;51.034;5.262;2022-12-29T13:19:17;12.20;69.90
12839;DHT22;6486;51.034;5.262;2022-12-29T13:22:21;12.20;70.00
12839;DHT22;6486;51.034;5.262;2022-12-29T13:25:27;12.20;69.80
12839;DHT22;6486;51.034;5.262;2022-12-29T13:30:28;12.20;69.30
12839;DHT22;6486;51.034;5.262;2022-12-29T13:33:21;12.20;69.50
12839;DHT22;6486;51.034;5.262;2022-12-29T13:36:04;12.20;69.40
12839;DHT22;6486;51.034;5.262;2022-12-29T13:38:32;12.20;69.50
12839;DHT22;6486;51.034;5.262;2022-12-29T13:41:04;12.20;70.20
12839;DHT22;6486;51.034;5.262;2022-12-29T13:43:32;12.20;69.60
12839;DHT22;6486;51.034;5.262;2022-12-29T13:46:05;12.20;69.30
12839;DHT22;6486;51.034;5.262;2022-12-29T13:48:39;12.20;69.40
12839;DHT22;6486;51.034;5.262;2022-12-29T13:51:08;12.20;69.50
12839;DHT22;6486;51.034;5.262;2022-12-29T13:56:39;12.10;68.70
12839;DHT22;6486;51.034;5.262;2022-12-29T13:59:21;12.10;68.90
12839;DHT22;6486;51.034;5.262;2022-12-29T14:02:00;12.10;69.20
12839;DHT22;6486;51.034;5.262;2022-12-29T14:04:28;12.10;69.30
12839;DHT22;6486;51.034;5.262;2022-12-29T14:07:15;12.10;69.30
12839;DHT22;6486;51.034;5.262;2022-12-29T14:12:35;12.10;69.40
12839;DHT22;6486;51.034;5.262;2022-12-29T14:15:22;12.10;69.40
12839;DHT22;6486;51.034;5.262;2022-12-29T14:18:11;12.10;69.50
12839;DHT22;6486;51.034;5.262;2022-12-29T14:23:39;12.10;69.40
12839;DHT22;6486;51.034;5.262;2022-12-29T14:28:32;12.10;69.30
12839;DHT22;6486;51.034;5.262;2022-12-29T14:31:01;12.10;69.40
12839;DHT22;6486;51.034;5.262;2022-12-29T14:33:29;12.10;69.40
12839;DHT22;6486;51.034;5.262;2022-12-29T14:35:56;12.10;69.60
12839;DHT22;6486;51.034;5.262;2022-12-29T14:38:24;12.10;69.70
12839;DHT22;6486;51.034;5.262;2022-12-29T14:40:51;12.10;69.80
12839;DHT22;6486;51.034;5.262;2022-12-29T14:43:25;12.00;70.00
12839;DHT22;6486;51.034;5.262;2022-12-29T14:46:09;12.00;70.30
12839;DHT22;6486;51.034;5.262;2022-12-29T14:48:38;11.90;70.50
12839;DHT22;6486;51.034;5.262;2022-12-29T14:51:29;11.90;70.70
12839;DHT22;6486;51.034;5.262;2022-12-29T14:53:56;11.80;70.80
12839;DHT22;6486;51.034;5.262;2022-12-29T14:56:27;11.70;70.90
12839;DHT22;6486;51.034;5.262;2022-12-29T14:58:56;11.70;71.10
12839;DHT22;6486;51.034;5.262;2022-12-29T15:01:25;11.70;71.20
12839;DHT22;6486;51.034;5.262;2022-12-29T15:03:56;11.60;71.40
12839;DHT22;6486;51.034;5.262;2022-12-29T15:06:24;11.60;71.50
12839;DHT22;6486;51.034;5.262;2022-12-29T15:09:03;11.50;71.60
12839;DHT22;6486;51.034;5.262;2022-12-29T15:14:02;11.50;71.90
12839;DHT22;6486;51.034;5.262;2022-12-29T15:16:34;11.50;71.90
12839;DHT22;6486;51.034;5.262;2022-12-29T15:19:02;11.40;71.90
12839;DHT22;6486;51.034;5.262;2022-12-29T15:21:34;11.40;72.10
12839;DHT22;6486;51.034;5.262;2022-12-29T15:24:04;11.40;72.20
12839;DHT22;6486;51.034;5.262;2022-12-29T15:26:39;11.40;73.00
12839;DHT22;6486;51.034;5.262;2022-12-29T15:29:05;11.40;72.40
12839;DHT22;6486;51.034;5.262;2022-12-29T15:31:30;11.40;72.50
12839;DHT22;6486;51.034;5.262;2022-12-29T15:34:10;11.30;72.50
12839;DHT22;6486;51.034;5.262;2022-12-29T15:36:40;11.30;72.50
12839;DHT22;6486;51.034;5.262;2022-12-29T15:39:38;11.30;72.50
12839;DHT22;6486;51.034;5.262;2022-12-29T15:44:47;11.20;72.30
12839;DHT22;6486;51.034;5.262;2022-12-29T15:47:21;11.20;72.40
12839;DHT22;6486;51.034;5.262;2022-12-29T15:49:49;11.10;72.20
12839;DHT22;6486;51.034;5.262;2022-12-29T15:52:19;10.90;72.40
12839;DHT22;6486;51.034;5.262;2022-12-29T15:54:46;10.70;72.60
12839;DHT22;6486;51.034;5.262;2022-12-29T15:57:23;10.50;73.20
12839;DHT22;6486;51.034;5.262;2022-12-29T15:59:50;10.30;73.60
12839;DHT22;6486;51.034;5.262;2022-12-29T16:02:16;10.10;74.20
12839;DHT22;6486;51.034;5.262;2022-12-29T16:04:42;10.00;74.60
12839;DHT22;6486;51.034;5.262;2022-12-29T16:07:40;9.90;77.30
12839;DHT22;6486;51.034;5.262;2022-12-29T16:10:26;9.80;77.20
12839;DHT22;6486;51.034;5.262;2022-12-29T16:12:52;9.80;77.60
12839;DHT22;6486;51.034;5.262;2022-12-29T16:15:18;9.70;78.00
12839;DHT22;6486;51.034;5.262;2022-12-29T16:17:49;9.70;78.30
12839;DHT22;6486;51.034;5.262;2022-12-29T16:20:25;9.70;78.50
12839;DHT22;6486;51.034;5.262;2022-12-29T16:22:58;9.70;79.00
12839;DHT22;6486;51.034;5.262;2022-12-29T16:25:28;9.60;79.20
12839;DHT22;6486;51.034;5.262;2022-12-29T16:27:56;9.60;79.40
12839;DHT22;6486;51.034;5.262;2022-12-29T16:30:25;9.50;79.40
12839;DHT22;6486;51.034;5.262;2022-12-29T16:32:54;9.50;79.50
12839;DHT22;6486;51.034;5.262;2022-12-29T16:35:23;9.50;79.90
12839;DHT22;6486;51.034;5.262;2022-12-29T16:40:55;9.40;80.10
12839;DHT22;6486;51.034;5.262;2022-12-29T16:43:31;9.30;80.20
12839;DHT22;6486;51.034;5.262;2022-12-29T16:48:32;9.30;80.50
12839;DHT22;6486;51.034;5.262;2022-12-29T16:51:13;9.30;80.80
12839;DHT22;6486;51.034;5.262;2022-12-29T16:53:41;9.30;80.90
12839;DHT22;6486;51.034;5.262;2022-12-29T16:56:20;9.30;80.90
12839;DHT22;6486;51.034;5.262;2022-12-29T16:58:48;9.30;81.00
12839;DHT22;6486;51.034;5.262;2022-12-29T17:01:14;9.30;81.00
12839;DHT22;6486;51.034;5.262;2022-12-29T17:03:53;9.30;81.00
12839;DHT22;6486;51.034;5.262;2022-12-29T17:06:20;9.30;81.00
12839;DHT22;6486;51.034;5.262;2022-12-29T17:08:47;9.30;81.00
12839;DHT22;6486;51.034;5.262;2022-12-29T17:11:28;9.30;81.00
12839;DHT22;6486;51.034;5.262;2022-12-29T17:14:42;9.30;81.00
12839;DHT22;6486;51.034;5.262;2022-12-29T17:17:29;9.30;81.10
12839;DHT22;6486;51.034;5.262;2022-12-29T17:19:57;9.30;81.10
12839;DHT22;6486;51.034;5.262;2022-12-29T17:22:26;9.20;81.20
12839;DHT22;6486;51.034;5.262;2022-12-29T17:24:54;9.20;81.20
12839;DHT22;6486;51.034;5.262;2022-12-29T17:27:24;9.20;81.30
12839;DHT22;6486;51.034;5.262;2022-12-29T17:29:52;9.20;81.40
12839;DHT22;6486;51.034;5.262;2022-12-29T17:32:18;9.20;81.40
12839;DHT22;6486;51.034;5.262;2022-12-29T17:34:44;9.20;81.20
12839;DHT22;6486;51.034;5.262;2022-12-29T17:37:31;9.20;81.20
12839;DHT22;6486;51.034;5.262;2022-12-29T17:39:57;9.10;81.20
12839;DHT22;6486;51.034;5.262;2022-12-29T17:42:23;9.10;81.20
12839;DHT22;6486;51.034;5.262;2022-12-29T17:44:48;9.10;81.20
12839;DHT22;6486;51.034;5.262;2022-12-29T17:47:14;9.10;81.20
12839;DHT22;6486;51.034;5.262;2022-12-29T17:49:41;9.10;81.20
12839;DHT22;6486;51.034;5.262;2022-12-29T17:52:11;9.00;81.10
12839;DHT22;6486;51.034;5.262;2022-12-29T17:54:42;9.00;81.10
12839;DHT22;6486;51.034;5.262;2022-12-29T17:57:15;9.00;81.10
12839;DHT22;6486;51.034;5.262;2022-12-29T17:59:42;9.00;81.20
12839;DHT22;6486;51.034;5.262;2022-12-29T18:02:37;8.90;81.10
12839;DHT22;6486;51.034;5.262;2022-12-29T18:05:05;8.90;81.30
12839;DHT22;6486;51.034;5.262;2022-12-29T18:07:30;8.90;81.20
12839;DHT22;6486;51.034;5.262;2022-12-29T18:09:56;8.90;81.90
12839;DHT22;6486;51.034;5.262;2022-12-29T18:12:28;8.90;81.30
12839;DHT22;6486;51.034;5.262;2022-12-29T18:14:54;8.90;81.30
12839;DHT22;6486;51.034;5.262;2022-12-29T18:17:20;8.90;81.40